Landsmeer, Netherlands
Current Conditions -  °F | °C
As of 10:25 PM on Saturday 20 Dec 2014 (Local Time) from EHAM Reporting Station
Few Clouds Few Clouds  
Wind Chill: 38°   Ceiling: Unl
Heat Index: 45°   Visibility: 6mi
Dew Point: 37°   Wind: 15mph
Humidity: 76%   Direction: 300°WNW
Pressure: 30.27"   Gusts: NA
Location:  52.43°N, 4.92°E
Report Text: EHAM 202125Z 30013KT 270V350 9999 FEW030 07/03 Q1025 NOSIG
Loading
Personal Weather Stations






























Interactive Weather Map New forecast layout! Learn more

10-Day Weather Forecast

Advertisements
Track Severe Weather on mobile